X  Sluiten METAR luchtvaart weer gegevens      EHKD De Kooy Airport
Temperatuur
12°C Temperatuur
10°C Dauwpunt
88% Vochtigheid



Wind
13 KM/U
8 MPH
4 M/S
7 KTS



180°
Z
Huidig weer

Grotendeels bewolkt Grotendeels bewolkt
Luchtdruk 1005.76 (hPa) - 29.7 (inHg)
Zicht 6 (mijl) - 9.7 (km)
Vliegveld
Vliegveld code EHKD

Locatie : De Kooy Airport
Afstand: 34 (km)

Metar:
EHKD 170025Z AUTO 18007KT 9999 BKN230 12/10 Q1006 BLU

Tijd: 17-06-2024 02:25 CEST